Parker, Colorado
Current Conditions -  °F | °C
As of 3:53 AM on Sunday 21 Dec 2014 (Local Time) from KAPA Reporting Station
Scattered Clouds Scattered Clouds  
Wind Chill: 22°   Ceiling: Unl
Heat Index: 30°   Visibility: 10mi
Dew Point: 19°   Wind: 8mph
Humidity: 64%   Direction: 180°S
Pressure: 29.81"   Gusts: NA
Location:  39.52°N, 104.76°W
Report Text: KAPA 211053Z 18007KT 10SM FEW120 SCT200 M01/M07 A2981 RMK AO2 SLP102 T10111072
Loading
Personal Weather Stations






























Interactive Weather Map New forecast layout! Learn more

10-Day Weather Forecast

Advertisements
Track Severe Weather on mobile